Time;durP1;ratioP1;P1;durP2;ratioP2;P2;SDS_P1;SDS_P2;PMS_P1;PMS_P2;Temp;Humidity;BMP_temperature;BMP_pressure;BME280_temperature;BME280_humidity;BME280_pressure;Samples;Min_cycle;Max_cycle;Signal;HPM_P1;HPM_P2
2024/03/31 00:00:22;;;;;;;56.10;12.73;;;;;;;;;;5096947;28;20047;-64
2024/03/31 00:03:09;;;;;;;43.53;11.70;;;;;;;;;;5099573;28;20073;-64
2024/03/31 00:05:55;;;;;;;46.55;12.40;;;;;;;;;;5091026;28;20028;-64
2024/03/31 00:08:42;;;;;;;50.03;12.25;;;;;;;;;;5098387;28;20481;-64
2024/03/31 00:11:28;;;;;;;41.50;10.48;;;;;;;;;;5095894;28;20035;-64
2024/03/31 00:14:14;;;;;;;39.25;10.00;;;;;;;;;;5097666;28;20044;-64
2024/03/31 00:17:00;;;;;;;36.13;10.02;;;;;;;;;;5096027;28;20111;-64
2024/03/31 00:19:47;;;;;;;47.03;11.25;;;;;;;;;;5081386;28;20548;-64
2024/03/31 00:22:33;;;;;;;39.97;12.95;;;;;;;;;;5079579;28;20039;-64
2024/03/31 00:25:19;;;;;;;41.20;10.88;;;;;;;;;;5081533;28;20083;-64
2024/03/31 00:28:05;;;;;;;28.02;7.07;;;;;;;;;;5083772;28;20030;-64
2024/03/31 00:30:54;;;;;;;33.40;8.43;;;;;;;;;;5079872;28;20623;-64
2024/03/31 00:33:41;;;;;;;46.90;9.60;;;;;;;;;;5079632;28;20123;-64
2024/03/31 00:36:27;;;;;;;31.80;8.68;;;;;;;;;;5084665;28;20370;-64
2024/03/31 00:39:13;;;;;;;34.13;9.65;;;;;;;;;;5083363;28;20036;-64
2024/03/31 00:42:00;;;;;;;45.22;11.00;;;;;;;;;;5080795;28;20560;-64
2024/03/31 00:44:46;;;;;;;32.45;9.55;;;;;;;;;;5079451;28;20032;-64
2024/03/31 00:47:32;;;;;;;44.83;10.63;;;;;;;;;;5082962;28;20048;-64
2024/03/31 00:50:19;;;;;;;32.58;9.25;;;;;;;;;;5078845;28;20770;-64
2024/03/31 00:53:05;;;;;;;32.47;10.48;;;;;;;;;;5084406;28;20072;-64
2024/03/31 00:55:51;;;;;;;31.02;9.85;;;;;;;;;;5082530;28;20039;-64
2024/03/31 00:58:38;;;;;;;41.67;9.80;;;;;;;;;;5079845;28;20114;-64
2024/03/31 01:01:24;;;;;;;29.15;9.65;;;;;;;;;;5092037;28;20038;-64
2024/03/31 01:04:10;;;;;;;46.25;10.70;;;;;;;;;;5104676;28;20040;-64
2024/03/31 01:06:57;;;;;;;36.35;8.20;;;;;;;;;;5103200;28;20543;-64
2024/03/31 01:09:43;;;;;;;39.88;9.27;;;;;;;;;;5100401;28;20080;-64
2024/03/31 01:12:30;;;;;;;32.63;7.82;;;;;;;;;;5103453;28;20034;-64
2024/03/31 01:15:17;;;;;;;40.85;9.00;;;;;;;;;;5100625;28;20690;-64
2024/03/31 01:18:03;;;;;;;50.05;10.40;;;;;;;;;;5104794;28;20031;-64
2024/03/31 01:20:49;;;;;;;35.20;8.30;;;;;;;;;;5099342;28;20031;-64
2024/03/31 01:23:38;;;;;;;36.95;8.27;;;;;;;;;;5102699;28;20032;-64
2024/03/31 01:26:25;;;;;;;36.65;7.97;;;;;;;;;;5079818;28;20085;-64
2024/03/31 01:29:11;;;;;;;29.92;6.82;;;;;;;;;;5101000;28;20501;-64
2024/03/31 01:31:57;;;;;;;34.20;8.23;;;;;;;;;;5101641;28;20038;-63
2024/03/31 01:34:44;;;;;;;31.42;7.10;;;;;;;;;;5096035;28;20410;-64
2024/03/31 01:37:30;;;;;;;;;;;;;;;;;;5101383;28;20040;-64
2024/03/31 01:40:17;;;;;;;31.52;7.25;;;;;;;;;;5103086;28;19987;-63
2024/03/31 01:43:03;;;;;;;30.90;7.78;;;;;;;;;;5103435;28;20534;-63
2024/03/31 01:45:51;;;;;;;34.08;7.55;;;;;;;;;;5095476;28;20102;-63
2024/03/31 01:48:37;;;;;;;35.83;7.22;;;;;;;;;;5103417;28;20039;-63
2024/03/31 01:51:24;;;;;;;37.40;7.45;;;;;;;;;;5101360;28;20027;-64
2024/03/31 01:54:10;;;;;;;32.05;6.43;;;;;;;;;;5103403;28;20145;-64
2024/03/31 01:56:56;;;;;;;29.67;6.78;;;;;;;;;;5101980;28;20091;-63
2024/03/31 01:59:42;;;;;;;36.03;6.22;;;;;;;;;;5099141;28;20105;-64
2024/03/31 02:02:29;;;;;;;24.33;4.75;;;;;;;;;;5100136;28;20117;-63
2024/03/31 02:05:15;;;;;;;29.52;5.95;;;;;;;;;;5095902;28;20657;-63
2024/03/31 02:08:01;;;;;;;21.52;6.28;;;;;;;;;;5095417;28;20539;-63
2024/03/31 02:10:47;;;;;;;29.13;6.32;;;;;;;;;;5102529;28;20030;-64
2024/03/31 02:13:34;;;;;;;29.20;6.47;;;;;;;;;;5101504;27;20051;-64
2024/03/31 02:16:23;;;;;;;33.40;6.20;;;;;;;;;;5081074;28;20039;-64
2024/03/31 02:19:09;;;;;;;27.48;5.97;;;;;;;;;;5093256;28;20573;-63
2024/03/31 02:21:55;;;;;;;34.00;6.70;;;;;;;;;;5091251;28;20408;-64
2024/03/31 02:24:42;;;;;;;34.35;5.90;;;;;;;;;;5098726;28;20028;-63
2024/03/31 02:27:28;;;;;;;29.98;5.78;;;;;;;;;;5091153;28;20096;-63
2024/03/31 02:30:15;;;;;;;28.45;5.85;;;;;;;;;;5095343;28;20600;-63
2024/03/31 02:33:01;;;;;;;35.63;6.45;;;;;;;;;;5102161;28;20234;-63
2024/03/31 02:35:47;;;;;;;43.30;6.25;;;;;;;;;;5090311;28;20040;-63
2024/03/31 02:38:33;;;;;;;26.15;6.28;;;;;;;;;;5092751;28;20456;-63
2024/03/31 02:41:20;;;;;;;28.27;5.80;;;;;;;;;;5095054;28;20065;-63
2024/03/31 02:44:06;;;;;;;28.58;5.78;;;;;;;;;;5123817;27;20058;-63
2024/03/31 02:46:52;;;;;;;38.42;6.93;;;;;;;;;;5122335;27;20130;-63
2024/03/31 02:49:39;;;;;;;34.13;6.03;;;;;;;;;;5121444;27;20126;-63
2024/03/31 02:52:25;;;;;;;43.70;6.75;;;;;;;;;;5122107;27;20039;-63
2024/03/31 02:55:11;;;;;;;28.27;5.57;;;;;;;;;;5120315;27;20050;-64
2024/03/31 02:57:58;;;;;;;23.70;5.97;;;;;;;;;;5121336;27;20034;-63
2024/03/31 03:00:44;;;;;;;45.15;6.63;;;;;;;;;;5114842;27;20050;-63
2024/03/31 03:03:30;;;;;;;29.17;5.90;;;;;;;;;;5121353;27;20438;-63
2024/03/31 03:06:16;;;;;;;37.65;6.30;;;;;;;;;;5121094;27;20050;-63
2024/03/31 03:09:03;;;;;;;32.70;6.00;;;;;;;;;;5119258;28;20603;-63
2024/03/31 03:11:49;;;;;;;25.27;5.93;;;;;;;;;;5113878;28;20038;-63
2024/03/31 03:14:36;;;;;;;38.88;6.03;;;;;;;;;;5115995;28;20028;-63
2024/03/31 03:17:22;;;;;;;33.63;6.63;;;;;;;;;;5115531;28;20074;-63
2024/03/31 03:20:09;;;;;;;28.70;5.97;;;;;;;;;;5117398;27;20134;-62
2024/03/31 03:22:59;;;;;;;30.88;6.18;;;;;;;;;;5102715;28;20035;-62
2024/03/31 03:25:53;;;;;;;26.35;6.18;;;;;;;;;;5114258;28;20027;-62
2024/03/31 03:28:40;;;;;;;33.17;6.55;;;;;;;;;;5115879;27;20528;-62
2024/03/31 03:31:27;;;;;;;33.63;6.55;;;;;;;;;;5116678;28;20086;-62
2024/03/31 03:34:14;;;;;;;25.52;5.10;;;;;;;;;;5121423;28;20260;-62
2024/03/31 03:37:00;;;;;;;31.13;6.22;;;;;;;;;;5117091;27;20070;-62
2024/03/31 03:39:48;;;;;;;29.50;6.50;;;;;;;;;;5112351;27;20045;-62
2024/03/31 03:42:34;;;;;;;33.83;6.82;;;;;;;;;;5120387;27;20067;-62
2024/03/31 03:45:20;;;;;;;26.33;5.63;;;;;;;;;;5122109;27;20065;-62
2024/03/31 03:48:07;;;;;;;28.08;6.72;;;;;;;;;;5120553;27;20039;-62
2024/03/31 03:50:53;;;;;;;29.30;6.78;;;;;;;;;;5117868;28;20584;-62
2024/03/31 03:53:39;;;;;;;28.25;7.35;;;;;;;;;;5123524;27;20035;-62
2024/03/31 03:56:26;;;;;;;29.50;6.70;;;;;;;;;;5122920;27;20116;-62
2024/03/31 03:59:12;;;;;;;27.38;7.07;;;;;;;;;;5117511;27;20035;-62
2024/03/31 04:01:59;;;;;;;22.98;6.20;;;;;;;;;;5122481;27;20046;-62
2024/03/31 04:04:45;;;;;;;32.17;7.95;;;;;;;;;;5119484;27;20092;-62
2024/03/31 04:07:31;;;;;;;34.33;7.32;;;;;;;;;;5123906;27;20047;-62
2024/03/31 04:10:17;;;;;;;21.52;6.70;;;;;;;;;;5123333;27;20034;-62
2024/03/31 04:13:04;;;;;;;26.40;6.15;;;;;;;;;;5124227;27;20023;-62
2024/03/31 04:15:57;;;;;;;34.72;7.53;;;;;;;;;;5124552;27;20038;-62
2024/03/31 04:18:44;;;;;;;28.67;8.32;;;;;;;;;;5121396;27;20085;-62
2024/03/31 04:21:30;;;;;;;;;;;;;;;;;;5123988;27;20066;-62
2024/03/31 04:24:16;;;;;;;23.35;5.88;;;;;;;;;;5124772;27;20544;-62
2024/03/31 04:27:02;;;;;;;26.88;6.20;;;;;;;;;;5123400;27;20042;-62
2024/03/31 04:29:49;;;;;;;29.67;6.82;;;;;;;;;;5117056;27;20023;-62
2024/03/31 04:32:35;;;;;;;22.08;6.80;;;;;;;;;;5119984;27;20553;-62
2024/03/31 04:35:21;;;;;;;23.48;5.45;;;;;;;;;;5119404;27;20171;-62
2024/03/31 04:38:08;;;;;;;21.52;4.45;;;;;;;;;;5125944;27;20055;-62
2024/03/31 04:40:55;;;;;;;30.33;4.80;;;;;;;;;;5116917;27;20111;-62
2024/03/31 04:43:41;;;;;;;19.05;4.45;;;;;;;;;;5124830;27;20042;-62
2024/03/31 04:46:28;;;;;;;25.08;4.57;;;;;;;;;;5123145;27;20499;-62
2024/03/31 04:49:14;;;;;;;23.02;4.78;;;;;;;;;;5123449;27;20119;-62
2024/03/31 04:52:00;;;;;;;24.02;4.85;;;;;;;;;;5122438;27;20031;-62
2024/03/31 04:54:47;;;;;;;24.65;5.40;;;;;;;;;;5119817;27;20039;-62
2024/03/31 04:57:26;;;;;;;37.35;5.50;;;;;;;;;;5031185;28;20128;-62
2024/03/31 05:00:13;;;;;;;32.72;6.35;;;;;;;;;;5039601;28;20055;-62
2024/03/31 05:02:59;;;;;;;31.13;4.60;;;;;;;;;;5031803;28;20038;-62
2024/03/31 05:05:45;;;;;;;28.52;4.93;;;;;;;;;;5040960;28;20032;-62
2024/03/31 05:08:31;;;;;;;22.27;4.57;;;;;;;;;;5035193;28;20083;-62
2024/03/31 05:11:18;;;;;;;25.48;4.95;;;;;;;;;;5036389;28;20033;-62
2024/03/31 05:14:04;;;;;;;16.67;4.25;;;;;;;;;;5035297;28;20521;-62
2024/03/31 05:16:50;;;;;;;17.10;4.97;;;;;;;;;;5039148;28;20068;-62
2024/03/31 05:19:36;;;;;;;20.95;4.47;;;;;;;;;;5035352;28;20045;-62
2024/03/31 05:22:23;;;;;;;20.85;3.80;;;;;;;;;;5038181;28;20040;-62
2024/03/31 05:25:09;;;;;;;7.15;2.42;;;;;;;;;;5038803;28;20084;-62
2024/03/31 05:27:55;;;;;;;23.58;4.35;;;;;;;;;;5035566;28;20037;-62
2024/03/31 05:30:42;;;;;;;14.00;2.63;;;;;;;;;;5036893;28;20033;-62
2024/03/31 05:33:28;;;;;;;15.55;2.72;;;;;;;;;;5031878;28;20549;-62
2024/03/31 05:36:14;;;;;;;11.77;2.55;;;;;;;;;;5033865;28;20119;-62
2024/03/31 05:39:00;;;;;;;12.15;2.70;;;;;;;;;;5040418;28;20072;-62
2024/03/31 05:41:47;;;;;;;18.75;2.65;;;;;;;;;;5037889;28;20049;-62
2024/03/31 05:44:33;;;;;;;24.50;2.85;;;;;;;;;;5034749;28;20063;-61
2024/03/31 05:47:19;;;;;;;10.43;2.30;;;;;;;;;;5040324;28;20059;-61
2024/03/31 05:50:06;;;;;;;15.10;2.53;;;;;;;;;;5040481;28;20029;-61
2024/03/31 05:52:52;;;;;;;16.30;3.33;;;;;;;;;;5032665;28;20037;-62
2024/03/31 05:55:38;;;;;;;15.80;2.03;;;;;;;;;;5039643;28;20064;-62
2024/03/31 05:58:25;;;;;;;15.23;2.30;;;;;;;;;;5022654;28;20033;-62
2024/03/31 06:01:11;;;;;;;10.20;1.73;;;;;;;;;;5039457;28;20044;-62
2024/03/31 06:03:57;;;;;;;16.98;1.65;;;;;;;;;;5037922;28;20028;-62
2024/03/31 06:06:43;;;;;;;8.13;1.60;;;;;;;;;;5036110;28;20045;-62
2024/03/31 06:09:30;;;;;;;12.88;1.40;;;;;;;;;;5034070;28;20045;-62
2024/03/31 06:12:16;;;;;;;11.57;1.98;;;;;;;;;;5037907;28;20091;-62
2024/03/31 06:15:02;;;;;;;7.20;1.73;;;;;;;;;;5039898;28;20029;-62
2024/03/31 06:17:49;;;;;;;9.55;1.30;;;;;;;;;;5043753;28;20049;-62
2024/03/31 06:20:37;;;;;;;6.70;1.67;;;;;;;;;;5034295;28;20033;-62
2024/03/31 06:23:23;;;;;;;11.75;1.70;;;;;;;;;;5035998;28;20086;-61
2024/03/31 06:26:10;;;;;;;13.05;1.40;;;;;;;;;;5041404;28;20485;-62
2024/03/31 06:28:56;;;;;;;11.38;1.35;;;;;;;;;;5036970;28;20060;-62
2024/03/31 06:31:43;;;;;;;9.93;1.73;;;;;;;;;;5038862;28;20060;-62
2024/03/31 06:34:29;;;;;;;20.50;1.88;;;;;;;;;;5034054;28;20041;-62
2024/03/31 06:37:17;;;;;;;10.77;1.40;;;;;;;;;;5043797;28;20838;-62
2024/03/31 06:40:03;;;;;;;6.30;1.13;;;;;;;;;;5035421;28;20037;-61
2024/03/31 06:42:50;;;;;;;15.52;1.75;;;;;;;;;;5039422;28;20065;-62
2024/03/31 06:45:36;;;;;;;8.07;1.80;;;;;;;;;;5032093;28;20526;-61
2024/03/31 06:48:22;;;;;;;9.95;1.20;;;;;;;;;;5042190;28;20044;-62
2024/03/31 06:51:09;;;;;;;13.65;1.13;;;;;;;;;;5038835;28;20040;-62
2024/03/31 06:53:55;;;;;;;6.57;1.10;;;;;;;;;;5039927;28;20125;-61
2024/03/31 06:56:41;;;;;;;9.50;1.08;;;;;;;;;;5033652;28;20495;-62
2024/03/31 06:59:27;;;;;;;5.88;1.10;;;;;;;;;;5031852;28;20034;-62
2024/03/31 07:02:14;;;;;;;6.75;0.77;;;;;;;;;;5036978;28;20041;-62
2024/03/31 07:05:00;;;;;;;4.25;0.88;;;;;;;;;;5034881;28;20124;-62
2024/03/31 07:07:46;;;;;;;4.90;0.77;;;;;;;;;;5026779;28;20049;-62
2024/03/31 07:10:33;;;;;;;10.38;0.90;;;;;;;;;;5032739;28;20025;-62
2024/03/31 07:13:19;;;;;;;8.32;1.05;;;;;;;;;;5019185;28;20032;-62
2024/03/31 07:16:05;;;;;;;3.45;0.65;;;;;;;;;;5033238;28;20075;-62
2024/03/31 07:18:51;;;;;;;8.20;1.15;;;;;;;;;;5031601;28;20051;-62
2024/03/31 07:21:38;;;;;;;4.75;1.05;;;;;;;;;;5034336;28;20086;-62
2024/03/31 07:24:24;;;;;;;6.32;1.45;;;;;;;;;;5038854;28;20073;-62
2024/03/31 07:27:11;;;;;;;7.22;1.10;;;;;;;;;;5040436;28;20045;-62
2024/03/31 07:29:57;;;;;;;7.70;1.08;;;;;;;;;;5038667;28;20032;-62
2024/03/31 07:32:43;;;;;;;9.65;0.93;;;;;;;;;;5037567;28;20041;-62
2024/03/31 07:35:30;;;;;;;6.60;0.95;;;;;;;;;;5038104;28;20037;-62
2024/03/31 07:38:16;;;;;;;9.93;1.20;;;;;;;;;;5035326;28;20082;-62
2024/03/31 07:41:03;;;;;;;13.23;1.50;;;;;;;;;;5039724;28;20090;-62
2024/03/31 07:43:49;;;;;;;7.45;0.93;;;;;;;;;;5031788;28;20393;-62
2024/03/31 07:46:35;;;;;;;4.43;0.75;;;;;;;;;;5034281;28;20037;-62
2024/03/31 07:49:22;;;;;;;7.22;0.98;;;;;;;;;;5036512;28;20037;-62
2024/03/31 07:52:08;;;;;;;7.40;0.95;;;;;;;;;;5041350;28;20032;-62
2024/03/31 07:54:54;;;;;;;8.95;0.85;;;;;;;;;;5033097;28;20096;-62
2024/03/31 07:57:40;;;;;;;6.38;1.30;;;;;;;;;;5035065;28;20053;-62
2024/03/31 08:00:27;;;;;;;9.43;1.63;;;;;;;;;;5039987;28;20040;-62
2024/03/31 08:03:13;;;;;;;7.93;1.08;;;;;;;;;;5040070;28;20044;-62
2024/03/31 08:06:00;;;;;;;;;;;;;;;;;;5035523;28;20049;-62
2024/03/31 08:08:46;;;;;;;5.63;0.75;;;;;;;;;;5034273;28;19920;-62
2024/03/31 08:11:32;;;;;;;7.68;1.17;;;;;;;;;;5034373;28;20398;-62
2024/03/31 08:14:18;;;;;;;6.55;0.98;;;;;;;;;;5038524;28;20044;-62
2024/03/31 08:17:05;;;;;;;11.43;1.33;;;;;;;;;;5039671;28;20499;-62
2024/03/31 08:19:51;;;;;;;5.70;1.05;;;;;;;;;;5036723;28;20045;-62
2024/03/31 08:22:37;;;;;;;9.60;1.02;;;;;;;;;;5036850;28;20030;-62
2024/03/31 08:25:23;;;;;;;5.82;1.00;;;;;;;;;;5038077;28;20037;-62
2024/03/31 08:28:10;;;;;;;6.07;1.00;;;;;;;;;;5042600;28;20041;-62
2024/03/31 08:30:56;;;;;;;6.82;0.95;;;;;;;;;;5040464;28;20041;-62
2024/03/31 08:33:45;;;;;;;4.97;0.73;;;;;;;;;;5037732;28;20060;-62
2024/03/31 08:36:32;;;;;;;8.43;0.77;;;;;;;;;;5038471;28;20399;-62
2024/03/31 08:39:19;;;;;;;14.88;1.95;;;;;;;;;;5033323;28;20029;-60
2024/03/31 08:42:05;;;;;;;;;;;;;;;;;;5043950;28;20048;-62
2024/03/31 08:44:52;;;;;;;8.82;1.27;;;;;;;;;;5033695;28;19909;-62
2024/03/31 08:47:40;;;;;;;7.68;1.52;;;;;;;;;;5038334;28;20506;-62
2024/03/31 08:50:27;;;;;;;8.30;0.70;;;;;;;;;;5035021;28;20029;-62
2024/03/31 08:53:13;;;;;;;6.85;1.33;;;;;;;;;;5023025;28;20516;-62
2024/03/31 08:55:59;;;;;;;11.30;2.15;;;;;;;;;;5038448;28;20044;-62
2024/03/31 08:58:46;;;;;;;11.55;1.42;;;;;;;;;;5034996;28;20041;-62
2024/03/31 09:01:34;;;;;;;11.32;1.88;;;;;;;;;;5033262;28;20045;-62
2024/03/31 09:04:21;;;;;;;9.68;0.82;;;;;;;;;;5033023;28;20033;-62
2024/03/31 09:07:07;;;;;;;6.13;0.95;;;;;;;;;;5040614;28;20698;-62
2024/03/31 09:09:53;;;;;;;10.75;1.25;;;;;;;;;;5035134;28;20550;-62
2024/03/31 09:12:40;;;;;;;12.30;1.42;;;;;;;;;;5034903;28;20044;-62
2024/03/31 09:15:27;;;;;;;7.25;1.65;;;;;;;;;;5037213;28;20080;-62
2024/03/31 09:18:13;;;;;;;11.20;2.15;;;;;;;;;;5034377;28;20039;-62
2024/03/31 09:21:01;;;;;;;13.55;2.25;;;;;;;;;;5038144;28;20032;-61
2024/03/31 09:23:47;;;;;;;12.48;2.45;;;;;;;;;;5034930;28;20087;-62
2024/03/31 09:26:33;;;;;;;11.75;2.13;;;;;;;;;;5037360;28;20037;-62
2024/03/31 09:29:20;;;;;;;12.88;3.70;;;;;;;;;;5031650;28;20036;-62
2024/03/31 09:32:07;;;;;;;17.75;2.88;;;;;;;;;;5036623;28;20068;-62
2024/03/31 09:34:53;;;;;;;;;;;;;;;;;;5034170;28;20033;-62
2024/03/31 09:37:39;;;;;;;13.18;2.47;;;;;;;;;;5034260;28;20473;-62
2024/03/31 09:40:26;;;;;;;11.50;2.92;;;;;;;;;;5033048;28;20036;-62
2024/03/31 09:43:12;;;;;;;12.15;2.55;;;;;;;;;;5032616;28;20136;-62
2024/03/31 09:45:59;;;;;;;14.20;2.70;;;;;;;;;;5032869;28;20036;-62
2024/03/31 09:48:48;;;;;;;13.63;3.08;;;;;;;;;;5041160;28;20029;-62
2024/03/31 09:51:35;;;;;;;10.52;2.42;;;;;;;;;;5035079;28;20033;-62
2024/03/31 09:54:27;;;;;;;16.38;2.90;;;;;;;;;;5034211;28;20033;-62
2024/03/31 09:57:14;;;;;;;11.00;2.25;;;;;;;;;;5037498;28;20045;-62
2024/03/31 10:00:01;;;;;;;;;;;;;;;;;;5035398;28;20163;-62
2024/03/31 10:02:51;;;;;;;18.23;2.78;;;;;;;;;;5033952;28;19913;-62
2024/03/31 10:05:38;;;;;;;15.88;2.97;;;;;;;;;;5032533;28;20033;-62
2024/03/31 10:08:29;;;;;;;12.75;2.53;;;;;;;;;;5038033;28;20029;-62
2024/03/31 10:11:16;;;;;;;13.00;2.92;;;;;;;;;;5037119;28;20083;-62
2024/03/31 10:14:03;;;;;;;12.43;2.67;;;;;;;;;;5032746;28;20426;-62
2024/03/31 10:16:51;;;;;;;9.55;2.28;;;;;;;;;;5037585;28;20171;-62
2024/03/31 10:19:38;;;;;;;15.30;2.22;;;;;;;;;;5030164;28;20421;-62
2024/03/31 10:22:25;;;;;;;20.35;2.63;;;;;;;;;;5039748;28;20273;-62
2024/03/31 10:25:11;;;;;;;15.25;2.92;;;;;;;;;;5036754;28;20574;-62
2024/03/31 10:27:58;;;;;;;13.27;2.83;;;;;;;;;;5032408;28;20128;-62
2024/03/31 10:30:44;;;;;;;12.90;2.88;;;;;;;;;;5032094;28;20039;-62
2024/03/31 10:33:31;;;;;;;11.32;2.50;;;;;;;;;;5029155;28;20033;-62
2024/03/31 10:36:18;;;;;;;14.50;2.05;;;;;;;;;;5037090;28;20059;-62
2024/03/31 10:39:04;;;;;;;;;;;;;;;;;;5032606;28;20152;-62
2024/03/31 10:41:51;;;;;;;10.50;2.50;;;;;;;;;;5039564;28;20267;-62
2024/03/31 10:44:38;;;;;;;11.25;2.28;;;;;;;;;;5031669;28;20037;-62
2024/03/31 10:47:24;;;;;;;9.52;2.90;;;;;;;;;;5038887;28;20139;-62
2024/03/31 10:50:12;;;;;;;21.13;3.17;;;;;;;;;;5038631;28;20095;-62
2024/03/31 10:52:58;;;;;;;11.88;3.22;;;;;;;;;;5031048;28;20749;-62
2024/03/31 10:55:45;;;;;;;16.90;3.63;;;;;;;;;;5034371;28;20079;-62
2024/03/31 10:58:32;;;;;;;16.33;3.63;;;;;;;;;;5033764;28;20526;-62
2024/03/31 11:01:18;;;;;;;17.40;2.78;;;;;;;;;;5035395;28;20042;-62
2024/03/31 11:04:20;;;;;;;22.05;5.57;;;;;;;;;;5034181;28;20037;-62
2024/03/31 11:07:07;;;;;;;19.85;3.85;;;;;;;;;;5039104;28;20044;-62
2024/03/31 11:09:53;;;;;;;;;;;;;;;;;;5031440;28;20029;-62
2024/03/31 11:12:43;;;;;;;18.08;2.65;;;;;;;;;;5033633;28;19917;-62
2024/03/31 11:15:31;;;;;;;17.17;3.42;;;;;;;;;;5034792;28;20091;-62
2024/03/31 11:18:18;;;;;;;12.10;2.65;;;;;;;;;;5028659;28;20132;-62
2024/03/31 11:21:06;;;;;;;13.70;2.40;;;;;;;;;;5035723;28;20469;-62
2024/03/31 11:23:52;;;;;;;12.05;2.45;;;;;;;;;;5030780;28;20029;-62
2024/03/31 11:26:38;;;;;;;13.40;2.50;;;;;;;;;;5032691;28;20037;-63
2024/03/31 11:29:25;;;;;;;25.05;4.45;;;;;;;;;;5029288;28;20044;-62
2024/03/31 11:32:11;;;;;;;11.30;2.92;;;;;;;;;;5033442;28;20029;-63
2024/03/31 11:34:58;;;;;;;15.43;2.80;;;;;;;;;;5030069;28;20056;-63
2024/03/31 11:37:44;;;;;;;18.20;3.30;;;;;;;;;;5029944;28;20216;-62
2024/03/31 11:40:31;;;;;;;12.52;2.95;;;;;;;;;;5036450;28;20029;-62
2024/03/31 11:43:17;;;;;;;10.27;2.78;;;;;;;;;;5033057;28;20048;-63
2024/03/31 11:46:04;;;;;;;19.63;3.20;;;;;;;;;;5035675;28;20039;-63
2024/03/31 11:48:50;;;;;;;15.25;3.22;;;;;;;;;;5030998;28;20245;-62
2024/03/31 11:51:37;;;;;;;17.17;2.88;;;;;;;;;;5038237;28;20869;-63
2024/03/31 11:54:24;;;;;;;15.20;2.72;;;;;;;;;;5036852;28;20033;-63
2024/03/31 11:57:11;;;;;;;19.00;3.33;;;;;;;;;;5034547;28;20040;-62
2024/03/31 11:59:57;;;;;;;23.52;2.95;;;;;;;;;;5032005;28;20109;-63
2024/03/31 12:02:43;;;;;;;19.52;3.53;;;;;;;;;;5034326;28;20124;-62
2024/03/31 12:05:29;;;;;;;19.63;3.92;;;;;;;;;;5032886;28;20498;-63
2024/03/31 12:08:17;;;;;;;14.20;3.20;;;;;;;;;;5029656;28;20088;-63
2024/03/31 12:11:05;;;;;;;17.55;4.03;;;;;;;;;;5032915;28;20033;-65
2024/03/31 12:13:52;;;;;;;17.15;2.88;;;;;;;;;;5031515;28;20029;-65
2024/03/31 12:16:43;;;;;;;12.93;2.70;;;;;;;;;;5040714;28;20119;-65
2024/03/31 12:19:30;;;;;;;14.18;2.90;;;;;;;;;;5039213;28;20045;-65
2024/03/31 12:22:16;;;;;;;21.58;3.42;;;;;;;;;;5038988;28;20477;-65
2024/03/31 12:25:03;;;;;;;22.63;2.72;;;;;;;;;;5032630;28;20045;-65
2024/03/31 12:27:50;;;;;;;15.40;2.97;;;;;;;;;;5036440;28;20503;-65
2024/03/31 12:30:39;;;;;;;18.48;2.80;;;;;;;;;;5033212;28;20032;-65
2024/03/31 12:33:26;;;;;;;19.38;2.25;;;;;;;;;;5035094;28;20402;-66
2024/03/31 12:36:13;;;;;;;13.05;2.55;;;;;;;;;;5036955;28;20043;-66
2024/03/31 12:38:59;;;;;;;15.98;3.05;;;;;;;;;;5031540;28;20048;-66
2024/03/31 12:41:47;;;;;;;19.85;2.63;;;;;;;;;;5038296;28;20029;-66
2024/03/31 12:44:33;;;;;;;22.25;3.80;;;;;;;;;;5037054;28;20098;-66
2024/03/31 12:47:19;;;;;;;14.00;2.63;;;;;;;;;;5038593;28;20478;-66
2024/03/31 12:50:06;;;;;;;21.98;3.63;;;;;;;;;;5032911;28;20218;-66
2024/03/31 12:52:52;;;;;;;16.90;2.83;;;;;;;;;;5028412;28;20429;-66
2024/03/31 12:55:39;;;;;;;28.45;3.33;;;;;;;;;;5041498;28;20037;-65
2024/03/31 12:58:26;;;;;;;24.55;3.47;;;;;;;;;;5028888;28;20039;-66
2024/03/31 13:01:18;;;;;;;19.75;2.67;;;;;;;;;;5029719;28;20041;-66
2024/03/31 13:04:05;;;;;;;17.38;2.70;;;;;;;;;;5031468;28;20032;-65
2024/03/31 13:06:51;;;;;;;14.02;3.28;;;;;;;;;;5031984;28;20041;-65
2024/03/31 13:09:37;;;;;;;30.67;3.63;;;;;;;;;;5040266;28;20132;-65
2024/03/31 13:12:24;;;;;;;15.98;3.15;;;;;;;;;;5032639;28;20060;-66
2024/03/31 13:15:10;;;;;;;19.40;3.45;;;;;;;;;;5035327;28;20060;-66
2024/03/31 13:17:56;;;;;;;27.23;3.58;;;;;;;;;;5031790;28;20703;-66
2024/03/31 13:20:43;;;;;;;23.25;4.05;;;;;;;;;;5031239;28;20742;-65
2024/03/31 13:23:29;;;;;;;23.98;4.03;;;;;;;;;;5043357;28;20654;-65
2024/03/31 13:26:15;;;;;;;23.27;4.53;;;;;;;;;;5033974;28;20037;-65
2024/03/31 13:29:01;;;;;;;26.63;4.57;;;;;;;;;;5030500;28;20033;-65
2024/03/31 13:31:48;;;;;;;22.60;3.80;;;;;;;;;;5033864;28;20049;-65
2024/03/31 13:34:34;;;;;;;19.15;4.28;;;;;;;;;;5036127;28;20118;-65
2024/03/31 13:37:20;;;;;;;28.77;4.93;;;;;;;;;;5034826;28;20059;-65
2024/03/31 13:40:09;;;;;;;33.85;4.20;;;;;;;;;;5037566;28;20082;-66
2024/03/31 13:42:55;;;;;;;27.33;3.92;;;;;;;;;;5029617;28;20112;-66
2024/03/31 13:45:41;;;;;;;24.92;4.53;;;;;;;;;;5033334;28;20029;-66
2024/03/31 13:48:28;;;;;;;27.30;4.15;;;;;;;;;;5033331;28;20091;-66
2024/03/31 13:51:14;;;;;;;17.70;4.32;;;;;;;;;;5046314;28;20580;-66
2024/03/31 13:54:00;;;;;;;30.15;4.53;;;;;;;;;;5033189;28;20563;-66
2024/03/31 13:56:47;;;;;;;34.58;4.43;;;;;;;;;;5040700;28;20029;-66
2024/03/31 13:59:33;;;;;;;24.17;4.15;;;;;;;;;;5038459;28;20037;-65
2024/03/31 14:02:19;;;;;;;25.88;3.53;;;;;;;;;;5034134;28;20033;-66
2024/03/31 14:05:05;;;;;;;24.88;3.78;;;;;;;;;;5036364;28;20025;-65
2024/03/31 14:07:52;;;;;;;28.95;3.85;;;;;;;;;;5016402;28;20049;-65
2024/03/31 14:10:38;;;;;;;21.40;4.00;;;;;;;;;;5032374;28;20471;-66
2024/03/31 14:13:24;;;;;;;34.58;5.75;;;;;;;;;;5035011;28;20033;-65
2024/03/31 14:16:11;;;;;;;32.30;4.30;;;;;;;;;;5035177;28;20033;-65
2024/03/31 14:18:58;;;;;;;26.67;3.67;;;;;;;;;;5031160;28;20175;-66
2024/03/31 14:21:44;;;;;;;;;;;;;;;;;;5039749;28;20558;-66
2024/03/31 14:24:30;;;;;;;28.55;4.60;;;;;;;;;;5040019;28;19969;-66
2024/03/31 14:27:16;;;;;;;22.83;3.47;;;;;;;;;;5033469;28;20550;-66
2024/03/31 14:30:04;;;;;;;32.67;4.20;;;;;;;;;;5029138;28;20045;-66
2024/03/31 14:32:50;;;;;;;28.30;4.40;;;;;;;;;;5030765;28;20135;-66
2024/03/31 14:35:37;;;;;;;29.88;4.10;;;;;;;;;;5032788;28;20033;-66
2024/03/31 14:38:24;;;;;;;23.20;3.38;;;;;;;;;;5034676;28;20044;-66
2024/03/31 14:41:10;;;;;;;34.67;4.75;;;;;;;;;;5034653;28;20033;-66
2024/03/31 14:43:56;;;;;;;32.05;4.47;;;;;;;;;;5033118;28;20037;-66
2024/03/31 14:46:43;;;;;;;40.88;4.93;;;;;;;;;;5035599;28;20150;-66
2024/03/31 14:49:29;;;;;;;25.83;4.30;;;;;;;;;;5031644;28;20048;-66
2024/03/31 14:52:15;;;;;;;19.83;4.40;;;;;;;;;;5040223;28;20047;-66
2024/03/31 14:55:01;;;;;;;36.80;4.93;;;;;;;;;;5033532;28;20045;-66
2024/03/31 14:57:48;;;;;;;33.90;4.63;;;;;;;;;;5026026;28;20401;-66
2024/03/31 15:00:34;;;;;;;36.75;4.40;;;;;;;;;;5036244;28;20088;-66
2024/03/31 15:03:20;;;;;;;23.88;4.45;;;;;;;;;;5027640;28;20095;-66
2024/03/31 15:06:07;;;;;;;30.20;5.00;;;;;;;;;;5033311;28;20051;-66
2024/03/31 15:08:57;;;;;;;34.03;4.22;;;;;;;;;;5026948;28;20489;-66
2024/03/31 15:11:43;;;;;;;28.10;3.67;;;;;;;;;;5033954;28;20050;-66
2024/03/31 15:14:30;;;;;;;30.02;4.63;;;;;;;;;;5032551;28;20033;-66
2024/03/31 15:17:16;;;;;;;35.10;4.85;;;;;;;;;;5028066;28;20047;-66
2024/03/31 15:20:03;;;;;;;31.70;4.05;;;;;;;;;;5035084;28;20037;-66
2024/03/31 15:22:49;;;;;;;31.27;3.95;;;;;;;;;;5027317;28;20056;-66
2024/03/31 15:25:35;;;;;;;34.88;4.65;;;;;;;;;;5031095;28;20090;-66
2024/03/31 15:28:22;;;;;;;37.33;4.28;;;;;;;;;;5029075;28;20037;-66
2024/03/31 15:31:08;;;;;;;;;;;;;;;;;;5034106;28;20029;-66
2024/03/31 15:33:55;;;;;;;26.10;5.00;;;;;;;;;;5025795;28;20485;-66
2024/03/31 15:36:41;;;;;;;22.92;3.38;;;;;;;;;;5038174;28;20083;-66
2024/03/31 15:39:27;;;;;;;24.95;4.75;;;;;;;;;;5028218;28;20167;-66
2024/03/31 15:42:14;;;;;;;34.28;3.80;;;;;;;;;;5032015;28;20132;-65
2024/03/31 15:45:00;;;;;;;28.67;4.53;;;;;;;;;;5030599;28;20049;-66
2024/03/31 15:47:46;;;;;;;37.60;3.50;;;;;;;;;;5030546;28;20486;-66
2024/03/31 15:50:33;;;;;;;23.00;3.85;;;;;;;;;;5032912;28;20033;-65
2024/03/31 15:53:20;;;;;;;20.63;3.40;;;;;;;;;;5020235;28;20371;-66
2024/03/31 15:56:07;;;;;;;21.05;3.90;;;;;;;;;;5018664;28;20149;-66
2024/03/31 15:58:53;;;;;;;32.80;3.30;;;;;;;;;;5025095;28;20246;-65
2024/03/31 16:01:40;;;;;;;29.92;5.65;;;;;;;;;;5036213;28;20033;-66
2024/03/31 16:04:26;;;;;;;26.63;4.68;;;;;;;;;;5031448;28;20037;-66
2024/03/31 16:07:12;;;;;;;23.60;4.75;;;;;;;;;;5038468;28;20433;-66
2024/03/31 16:09:59;;;;;;;33.75;4.95;;;;;;;;;;5029841;28;20030;-69
2024/03/31 16:12:45;;;;;;;19.17;4.25;;;;;;;;;;5023260;28;20026;-66
2024/03/31 16:15:31;;;;;;;38.92;4.80;;;;;;;;;;5025182;28;20037;-66
2024/03/31 16:18:17;;;;;;;35.92;4.18;;;;;;;;;;5034006;28;20040;-66
2024/03/31 16:21:04;;;;;;;27.60;4.03;;;;;;;;;;5024208;28;20496;-66
2024/03/31 16:23:50;;;;;;;26.75;4.70;;;;;;;;;;5034502;28;20040;-65
2024/03/31 16:26:37;;;;;;;30.83;4.38;;;;;;;;;;5031062;28;20040;-65